createdAt,value
2023-03-27T00:01:34.229Z,90.68
2023-03-27T00:04:02.232Z,90.38
2023-03-27T00:06:30.356Z,90.26
2023-03-27T00:08:58.293Z,89.79
2023-03-27T00:11:26.564Z,89.31
2023-03-27T00:13:54.921Z,89.69
2023-03-27T00:16:26.742Z,90.10
2023-03-27T00:18:55.547Z,89.96
2023-03-27T00:21:24.313Z,90.42
2023-03-27T00:23:52.360Z,90.02
2023-03-27T00:26:21.511Z,89.50
2023-03-27T00:28:49.858Z,89.26
2023-03-27T00:31:18.071Z,89.01
2023-03-27T00:33:47.430Z,89.18
2023-03-27T00:36:15.438Z,88.39
2023-03-27T00:38:45.856Z,88.78
2023-03-27T00:41:14.119Z,88.04
2023-03-27T00:43:44.206Z,88.88
2023-03-27T00:46:31.492Z,88.25
2023-03-27T00:49:06.377Z,88.98
2023-03-27T00:51:36.672Z,89.21
2023-03-27T00:54:06.230Z,88.78
2023-03-27T00:56:38.682Z,89.38
2023-03-27T00:59:09.453Z,88.86
2023-03-27T01:01:37.722Z,89.42
2023-03-27T01:04:09.008Z,89.67
2023-03-27T01:06:39.685Z,90.74
2023-03-27T01:09:09.327Z,91.04
2023-03-27T01:11:53.043Z,91.75
2023-03-27T01:14:31.647Z,91.44
2023-03-27T01:17:11.345Z,93.12
2023-03-27T01:20:13.552Z,95.28
2023-03-27T01:23:11.501Z,96.17
2023-03-27T01:26:09.016Z,95.59
2023-03-27T01:28:47.516Z,95.72
2023-03-27T01:31:30.281Z,96.88
2023-03-27T01:34:42.664Z,96.58
2023-03-27T01:37:29.223Z,96.61
2023-03-27T01:40:06.100Z,95.75
2023-03-27T01:42:39.677Z,97.06
2023-03-27T01:45:14.113Z,97.67
2023-03-27T01:47:47.511Z,97.74
2023-03-27T01:50:23.454Z,98.04
2023-03-27T01:52:57.284Z,98.50
2023-03-27T01:55:31.533Z,98.25
2023-03-27T01:58:05.059Z,98.68
2023-03-27T02:01:04.023Z,99.02
2023-03-27T02:03:28.627Z,100.00
2023-03-27T02:06:01.129Z,99.82
2023-03-27T02:08:35.211Z,100.00
2023-03-27T02:11:25.700Z,99.29
2023-03-27T02:13:58.925Z,98.51
2023-03-27T02:16:33.979Z,98.54
2023-03-27T02:19:06.067Z,98.25
2023-03-27T02:21:34.172Z,98.51
2023-03-27T02:24:06.329Z,97.48
2023-03-27T02:26:36.388Z,97.06
2023-03-27T02:29:36.284Z,96.13
2023-03-27T02:32:19.150Z,96.32
2023-03-27T02:35:13.791Z,96.42
2023-03-27T02:37:53.258Z,95.44
2023-03-27T02:40:48.707Z,96.10
2023-03-27T02:43:49.646Z,96.13
2023-03-27T02:46:30.690Z,96.39
2023-03-27T02:49:04.552Z,97.25
2023-03-27T02:51:36.421Z,97.16
2023-03-27T02:54:08.362Z,96.52
2023-03-27T02:56:41.699Z,96.12
2023-03-27T02:59:14.401Z,97.20
2023-03-27T03:01:45.517Z,97.98
2023-03-27T03:04:23.713Z,99.74
2023-03-27T03:07:11.549Z,99.13
2023-03-27T03:09:41.324Z,98.61
2023-03-27T03:12:10.219Z,97.76
2023-03-27T03:14:48.501Z,96.89
2023-03-27T03:17:17.444Z,96.67
2023-03-27T03:19:46.766Z,96.70
2023-03-27T03:22:15.824Z,96.01
2023-03-27T03:24:43.917Z,94.84
2023-03-27T03:27:15.764Z,94.58
2023-03-27T03:29:56.818Z,95.25
2023-03-27T03:32:30.306Z,95.04
2023-03-27T03:35:01.769Z,95.29
2023-03-27T03:37:38.779Z,95.29
2023-03-27T03:40:12.045Z,95.30
2023-03-27T03:42:47.078Z,95.82
2023-03-27T03:45:17.439Z,95.42
2023-03-27T03:47:47.372Z,94.91
2023-03-27T03:50:15.506Z,95.59
2023-03-27T03:52:44.016Z,96.02
2023-03-27T03:55:12.970Z,95.96
2023-03-27T03:57:41.943Z,94.99
2023-03-27T04:00:18.801Z,95.55
2023-03-27T04:02:53.373Z,95.27
2023-03-27T04:05:22.078Z,94.41
2023-03-27T04:07:53.199Z,94.21
2023-03-27T04:10:21.127Z,95.42
2023-03-27T04:12:50.184Z,96.20
2023-03-27T04:15:34.577Z,95.80
2023-03-27T04:18:15.224Z,96.16
2023-03-27T04:20:43.788Z,96.48
2023-03-27T04:23:14.197Z,95.65
2023-03-27T04:25:42.613Z,95.82
2023-03-27T04:28:16.779Z,96.04
2023-03-27T04:30:50.617Z,96.94
2023-03-27T04:33:39.786Z,97.13
2023-03-27T04:36:46.224Z,97.10
2023-03-27T04:39:21.648Z,96.36
2023-03-27T04:41:50.072Z,95.87
2023-03-27T04:44:18.634Z,94.96
2023-03-27T04:46:49.286Z,94.81
2023-03-27T04:49:19.210Z,94.83
2023-03-27T04:51:56.499Z,94.70
2023-03-27T04:54:27.806Z,95.44
2023-03-27T04:56:55.817Z,94.95
2023-03-27T04:59:24.179Z,94.98
2023-03-27T05:02:13.424Z,95.15
2023-03-27T05:05:04.761Z,95.12
2023-03-27T05:07:36.039Z,94.25
2023-03-27T05:10:06.967Z,94.13
2023-03-27T05:12:35.765Z,94.61
2023-03-27T05:15:06.327Z,94.40
2023-03-27T05:17:43.569Z,94.93
2023-03-27T05:20:14.593Z,94.97
2023-03-27T05:22:43.124Z,95.71
2023-03-27T05:25:22.329Z,96.29
2023-03-27T05:27:51.265Z,95.69
2023-03-27T05:30:20.960Z,97.62
2023-03-27T05:32:54.610Z,96.67
2023-03-27T05:35:29.067Z,97.46
2023-03-27T05:37:59.153Z,98.21
2023-03-27T05:40:47.351Z,98.69
2023-03-27T05:43:18.174Z,97.88
2023-03-27T05:45:46.330Z,96.51
2023-03-27T05:48:15.815Z,97.06
2023-03-27T05:50:43.719Z,96.02
2023-03-27T05:53:20.061Z,96.90
2023-03-27T05:56:17.011Z,96.55
2023-03-27T05:59:05.865Z,96.88
2023-03-27T06:01:36.571Z,97.29
2023-03-27T06:04:06.166Z,96.82
2023-03-27T06:07:02.447Z,96.89
2023-03-27T06:09:32.661Z,97.10
2023-03-27T06:12:20.961Z,96.72
2023-03-27T06:14:52.963Z,96.28
2023-03-27T06:17:32.166Z,97.32
2023-03-27T06:20:12.571Z,97.11
2023-03-27T06:22:45.270Z,97.72
2023-03-27T06:25:14.794Z,98.10
2023-03-27T06:27:43.564Z,98.37
2023-03-27T06:30:13.033Z,98.41
2023-03-27T06:32:46.739Z,98.30
2023-03-27T06:35:18.526Z,97.91
2023-03-27T06:37:56.650Z,97.68
2023-03-27T06:40:28.343Z,98.00
2023-03-27T06:43:02.151Z,97.71
2023-03-27T06:45:38.723Z,98.72
2023-03-27T06:48:29.399Z,98.21
2023-03-27T06:51:00.152Z,97.76
2023-03-27T06:53:31.141Z,97.02
2023-03-27T06:56:02.592Z,96.29
2023-03-27T06:58:44.134Z,95.70
2023-03-27T07:01:12.662Z,95.32
2023-03-27T07:03:59.522Z,94.85
2023-03-27T07:06:48.902Z,96.11
2023-03-27T07:09:17.083Z,97.01
2023-03-27T07:11:55.299Z,97.69
2023-03-27T07:14:24.255Z,97.51
2023-03-27T07:16:52.242Z,98.59
2023-03-27T07:19:20.792Z,99.51
2023-03-27T07:21:59.536Z,99.36
2023-03-27T07:24:27.431Z,98.58
2023-03-27T07:26:55.427Z,97.78
2023-03-27T07:29:29.095Z,98.75
2023-03-27T07:32:00.474Z,100.00
2023-03-27T07:34:35.926Z,100.00
2023-03-27T07:37:14.511Z,99.81
2023-03-27T07:39:58.645Z,100.00
2023-03-27T07:42:28.303Z,100.00
2023-03-27T07:45:04.157Z,99.64
2023-03-27T07:47:33.010Z,99.10
2023-03-27T07:50:01.330Z,99.68
2023-03-27T07:52:30.692Z,99.79
2023-03-27T07:55:01.758Z,100.00
2023-03-27T07:57:58.035Z,100.00
2023-03-27T08:00:28.530Z,99.38
2023-03-27T08:03:11.619Z,98.24
2023-03-27T08:05:44.580Z,97.97
2023-03-27T08:08:17.057Z,98.12
2023-03-27T08:11:09.636Z,97.08
2023-03-27T08:13:41.580Z,96.65
2023-03-27T08:16:12.465Z,95.82
2023-03-27T08:18:40.742Z,95.32
2023-03-27T08:21:10.432Z,93.62
2023-03-27T08:23:41.293Z,93.21
2023-03-27T08:26:09.314Z,92.75
2023-03-27T08:28:47.871Z,93.04
2023-03-27T08:31:18.504Z,92.51
2023-03-27T08:33:46.962Z,90.75
2023-03-27T08:36:23.149Z,90.24
2023-03-27T08:38:55.408Z,89.73
2023-03-27T08:41:34.456Z,89.25
2023-03-27T08:44:14.840Z,88.88
2023-03-27T08:46:48.988Z,88.82
2023-03-27T08:49:18.573Z,87.81
2023-03-27T08:52:09.100Z,87.76
2023-03-27T08:54:41.487Z,88.60
2023-03-27T08:57:19.729Z,88.83
2023-03-27T08:59:50.394Z,88.62
2023-03-27T09:02:29.805Z,88.28
2023-03-27T09:05:04.981Z,91.33
2023-03-27T09:07:42.905Z,91.98
2023-03-27T09:10:30.135Z,91.49
2023-03-27T09:13:08.085Z,92.73
2023-03-27T09:15:42.182Z,92.87
2023-03-27T09:18:18.136Z,84.20
2023-03-27T09:20:51.569Z,86.29
2023-03-27T09:23:27.156Z,82.12
2023-03-27T09:26:19.500Z,80.88
2023-03-27T09:29:22.273Z,81.61
2023-03-27T09:32:15.650Z,80.42
2023-03-27T09:34:45.261Z,80.28
2023-03-27T09:37:17.521Z,79.47
2023-03-27T09:39:51.129Z,78.97
2023-03-27T09:42:31.690Z,79.02
2023-03-27T09:45:03.884Z,78.81
2023-03-27T09:47:39.854Z,77.82
2023-03-27T09:50:27.401Z,75.46
2023-03-27T09:53:10.456Z,75.01
2023-03-27T09:55:58.668Z,75.80
2023-03-27T09:58:36.986Z,72.16
2023-03-27T10:01:13.386Z,72.70
2023-03-27T10:03:49.805Z,74.39
2023-03-27T10:06:27.252Z,75.33
2023-03-27T10:09:20.725Z,77.32
2023-03-27T10:11:50.514Z,77.38
2023-03-27T10:14:34.636Z,77.08
2023-03-27T10:17:03.243Z,76.83
2023-03-27T10:19:35.751Z,77.29
2023-03-27T10:22:18.522Z,77.21
2023-03-27T10:24:48.784Z,77.46
2023-03-27T10:27:27.712Z,76.42
2023-03-27T10:30:30.460Z,74.49
2023-03-27T10:33:31.019Z,79.75
2023-03-27T10:36:13.040Z,79.98
2023-03-27T10:38:43.548Z,80.48
2023-03-27T10:41:30.736Z,81.42
2023-03-27T10:44:01.864Z,82.04
2023-03-27T10:46:32.191Z,79.11
2023-03-27T10:49:22.283Z,81.36
2023-03-27T10:51:52.693Z,80.25
2023-03-27T10:54:40.161Z,75.36
2023-03-27T10:57:16.211Z,74.69
2023-03-27T10:59:48.897Z,73.46
2023-03-27T11:02:30.757Z,72.23
2023-03-27T11:05:04.272Z,71.16
2023-03-27T11:07:39.338Z,71.11
2023-03-27T11:10:17.847Z,69.31
2023-03-27T11:12:52.131Z,70.69
2023-03-27T11:15:23.090Z,70.19
2023-03-27T11:18:01.721Z,69.93
2023-03-27T11:20:47.358Z,72.04
2023-03-27T11:23:35.000Z,74.43
2023-03-27T11:26:25.297Z,73.06
2023-03-27T11:29:02.016Z,72.86
2023-03-27T11:31:46.179Z,73.73
2023-03-27T11:34:28.766Z,72.62
2023-03-27T11:37:07.664Z,73.17
2023-03-27T11:39:46.771Z,74.00
2023-03-27T11:42:20.091Z,70.73
2023-03-27T11:44:49.882Z,71.71
2023-03-27T11:47:34.780Z,71.65
2023-03-27T11:50:23.456Z,72.38
2023-03-27T11:53:09.016Z,72.05
2023-03-27T11:56:24.800Z,73.30
2023-03-27T11:59:15.255Z,73.47
2023-03-27T12:01:59.420Z,72.31
2023-03-27T12:04:42.354Z,71.44
2023-03-27T12:07:42.144Z,71.01
2023-03-27T12:10:29.021Z,71.54
2023-03-27T12:13:41.215Z,69.04
2023-03-27T12:16:42.322Z,70.24
2023-03-27T12:19:34.134Z,70.45
2023-03-27T12:22:38.585Z,69.78
2023-03-27T12:25:36.296Z,69.23
2023-03-27T12:28:57.628Z,69.10
2023-03-27T12:32:01.582Z,69.21
2023-03-27T12:34:50.165Z,68.41
2023-03-27T12:37:22.228Z,68.71
2023-03-27T12:39:54.966Z,68.59
2023-03-27T12:42:44.924Z,66.87
2023-03-27T12:45:19.632Z,67.30
2023-03-27T12:48:17.721Z,65.02
2023-03-27T12:50:58.098Z,65.01
2023-03-27T12:53:50.520Z,66.53
2023-03-27T12:56:27.400Z,65.80
2023-03-27T12:58:57.733Z,65.91
2023-03-27T13:02:13.338Z,63.84
2023-03-27T13:05:33.688Z,64.43
2023-03-27T13:08:32.214Z,64.92
2023-03-27T13:11:22.668Z,65.48
2023-03-27T13:14:30.937Z,64.79
2023-03-27T13:17:16.152Z,64.56
2023-03-27T13:19:59.241Z,63.44
2023-03-27T13:22:41.580Z,63.69
2023-03-27T13:25:31.620Z,62.57
2023-03-27T13:28:28.542Z,62.87
2023-03-27T13:31:50.424Z,61.70
2023-03-27T13:34:38.347Z,62.69
2023-03-27T13:37:53.701Z,60.09
2023-03-27T13:40:32.224Z,62.94
2023-03-27T13:43:22.636Z,63.17
2023-03-27T13:45:59.998Z,63.72
2023-03-27T13:49:21.088Z,62.88
2023-03-27T13:52:27.653Z,63.81
2023-03-27T13:55:23.043Z,63.97
2023-03-27T13:58:36.692Z,64.22
2023-03-27T14:01:22.132Z,64.27
2023-03-27T14:04:14.225Z,63.61
2023-03-27T14:07:06.545Z,61.72
2023-03-27T14:09:51.697Z,63.37
2023-03-27T14:12:38.036Z,63.37
2023-03-27T14:15:33.937Z,63.44
2023-03-27T14:19:24.314Z,61.89
2023-03-27T14:21:59.394Z,63.35
2023-03-27T14:24:34.717Z,62.20
2023-03-27T14:27:15.974Z,61.29
2023-03-27T14:29:45.144Z,61.24
2023-03-27T14:32:18.015Z,61.38
2023-03-27T14:34:54.946Z,61.14
2023-03-27T14:37:39.035Z,61.52
2023-03-27T14:40:33.330Z,61.09
2023-03-27T14:43:08.302Z,61.33
2023-03-27T14:45:40.306Z,61.71
2023-03-27T14:48:19.863Z,59.67
2023-03-27T14:50:50.275Z,61.43
2023-03-27T14:53:26.294Z,62.08
2023-03-27T14:56:12.920Z,61.61
2023-03-27T14:59:01.190Z,61.35
2023-03-27T15:01:40.160Z,61.08
2023-03-27T15:04:11.221Z,60.63
2023-03-27T15:06:41.476Z,60.94
2023-03-27T15:09:15.604Z,60.69
2023-03-27T15:12:18.618Z,60.91
2023-03-27T15:14:49.673Z,60.07
2023-03-27T15:17:20.076Z,59.80
2023-03-27T15:19:51.025Z,58.69
2023-03-27T15:22:24.479Z,59.91
2023-03-27T15:24:56.029Z,60.16
2023-03-27T15:27:29.580Z,59.21
2023-03-27T15:30:01.378Z,59.09
2023-03-27T15:32:42.552Z,59.51
2023-03-27T15:35:15.755Z,59.27
2023-03-27T15:37:43.986Z,59.25
2023-03-27T15:40:36.722Z,57.32
2023-03-27T15:43:07.841Z,58.13
2023-03-27T15:45:40.368Z,58.56
2023-03-27T15:48:19.762Z,57.01
2023-03-27T15:50:56.478Z,57.71
2023-03-27T15:53:39.662Z,57.12
2023-03-27T15:56:16.086Z,57.41
2023-03-27T15:58:48.135Z,56.98
2023-03-27T16:01:21.684Z,56.90
2023-03-27T16:03:51.659Z,57.20
2023-03-27T16:06:31.796Z,56.93
2023-03-27T16:08:59.947Z,57.38
2023-03-27T16:11:37.748Z,56.51
2023-03-27T16:14:05.874Z,56.76
2023-03-27T16:16:35.367Z,56.63
2023-03-27T16:19:11.361Z,56.23
2023-03-27T16:21:39.768Z,55.62
2023-03-27T16:24:08.337Z,55.67
2023-03-27T16:26:36.256Z,56.33
2023-03-27T16:29:06.208Z,55.65
2023-03-27T16:31:35.639Z,56.25
2023-03-27T16:34:10.482Z,56.65
2023-03-27T16:36:38.638Z,57.23
2023-03-27T16:39:07.215Z,57.85
2023-03-27T16:41:35.240Z,57.65
2023-03-27T16:44:03.462Z,58.43
2023-03-27T16:46:32.824Z,58.46
2023-03-27T16:49:02.120Z,57.66
2023-03-27T16:51:31.105Z,57.23
2023-03-27T16:53:59.357Z,57.06
2023-03-27T16:56:27.315Z,56.76
2023-03-27T16:58:55.559Z,56.77
2023-03-27T17:01:23.940Z,57.57
2023-03-27T17:03:52.016Z,58.01
2023-03-27T17:06:22.753Z,58.23
2023-03-27T17:08:55.332Z,57.70
2023-03-27T17:11:23.986Z,58.36
2023-03-27T17:13:52.711Z,57.47
2023-03-27T17:16:20.785Z,57.72
2023-03-27T17:18:48.818Z,58.02
2023-03-27T17:21:16.724Z,58.58
2023-03-27T17:23:48.339Z,58.07
2023-03-27T17:26:23.021Z,59.33
2023-03-27T17:28:50.974Z,57.91
2023-03-27T17:31:19.008Z,58.49
2023-03-27T17:33:46.986Z,59.19
2023-03-27T17:36:21.649Z,57.95
2023-03-27T17:38:56.224Z,58.06
2023-03-27T17:41:24.503Z,58.30
2023-03-27T17:43:52.407Z,58.11
2023-03-27T17:46:20.365Z,57.72
2023-03-27T17:48:49.375Z,57.35
2023-03-27T17:51:17.335Z,58.14
2023-03-27T17:53:45.912Z,57.73
2023-03-27T17:56:15.240Z,57.60
2023-03-27T17:58:43.874Z,57.32
2023-03-27T18:01:17.070Z,56.55
2023-03-27T18:03:45.307Z,57.66
2023-03-27T18:06:13.741Z,57.53
2023-03-27T18:08:42.121Z,57.89
2023-03-27T18:11:10.708Z,58.09
2023-03-27T18:13:40.359Z,58.27
2023-03-27T18:16:10.641Z,57.75
2023-03-27T18:18:39.040Z,58.49
2023-03-27T18:21:08.862Z,57.81
2023-03-27T18:23:45.747Z,58.72
2023-03-27T18:26:15.601Z,58.52
2023-03-27T18:28:45.119Z,59.05
2023-03-27T18:31:13.823Z,58.68
2023-03-27T18:33:41.823Z,58.96
2023-03-27T18:36:11.978Z,59.33
2023-03-27T18:38:40.947Z,58.60
2023-03-27T18:41:09.515Z,58.81
2023-03-27T18:43:37.642Z,59.01
2023-03-27T18:46:08.316Z,58.91
2023-03-27T18:48:36.533Z,60.03
2023-03-27T18:51:06.573Z,59.61
2023-03-27T18:53:34.600Z,59.40
2023-03-27T18:56:03.417Z,59.53
2023-03-27T18:58:31.436Z,59.95
2023-03-27T19:01:00.033Z,59.74
2023-03-27T19:03:34.947Z,59.96
2023-03-27T19:06:05.591Z,61.13
2023-03-27T19:08:37.423Z,60.01
2023-03-27T19:11:05.828Z,60.28
2023-03-27T19:13:52.206Z,60.97
2023-03-27T19:16:44.621Z,61.12
2023-03-27T19:19:40.378Z,60.35
2023-03-27T19:22:31.223Z,61.67
2023-03-27T19:25:07.649Z,62.41
2023-03-27T19:27:38.889Z,63.28
2023-03-27T19:30:09.270Z,63.40
2023-03-27T19:32:37.300Z,62.80
2023-03-27T19:35:07.623Z,61.96
2023-03-27T19:37:36.819Z,62.24
2023-03-27T19:40:06.044Z,60.97
2023-03-27T19:42:34.161Z,60.88
2023-03-27T19:45:02.102Z,60.74
2023-03-27T19:47:30.039Z,60.62
2023-03-27T19:49:58.823Z,60.19
2023-03-27T19:52:57.205Z,60.59
2023-03-27T19:55:29.394Z,61.02
2023-03-27T19:57:57.447Z,60.63
2023-03-27T20:00:25.416Z,60.27
2023-03-27T20:02:53.862Z,60.05
2023-03-27T20:05:22.184Z,60.13
2023-03-27T20:07:51.610Z,60.67
2023-03-27T20:10:21.409Z,61.56
2023-03-27T20:12:49.535Z,60.92
2023-03-27T20:15:17.617Z,61.73
2023-03-27T20:17:45.591Z,61.97
2023-03-27T20:20:13.713Z,62.28
2023-03-27T20:22:57.124Z,62.08
2023-03-27T20:25:29.909Z,62.56
2023-03-27T20:27:57.812Z,61.91
2023-03-27T20:30:26.305Z,62.51
2023-03-27T20:32:54.676Z,62.67
2023-03-27T20:35:24.801Z,63.63
2023-03-27T20:37:57.823Z,62.23
2023-03-27T20:40:32.941Z,62.76
2023-03-27T20:43:07.628Z,62.55
2023-03-27T20:45:42.927Z,61.53
2023-03-27T20:48:14.842Z,60.17
2023-03-27T20:50:49.147Z,59.31
2023-03-27T20:53:18.957Z,59.16
2023-03-27T20:55:59.275Z,58.31
2023-03-27T20:58:29.229Z,57.92
2023-03-27T21:00:57.234Z,58.77
2023-03-27T21:03:25.331Z,58.86
2023-03-27T21:05:53.295Z,59.27
2023-03-27T21:08:21.423Z,58.87
2023-03-27T21:10:55.552Z,59.00
2023-03-27T21:13:23.518Z,59.91
2023-03-27T21:15:51.423Z,61.55
2023-03-27T21:18:19.689Z,62.06
2023-03-27T21:20:47.630Z,61.80
2023-03-27T21:23:15.620Z,62.04
2023-03-27T21:25:45.444Z,62.05
2023-03-27T21:28:14.809Z,63.56
2023-03-27T21:30:47.340Z,62.66
2023-03-27T21:33:17.406Z,62.14
2023-03-27T21:35:47.429Z,61.86
2023-03-27T21:38:16.463Z,61.08
2023-03-27T21:40:46.198Z,60.71
2023-03-27T21:43:15.813Z,60.58
2023-03-27T21:45:44.389Z,60.26
2023-03-27T21:48:12.501Z,59.92
2023-03-27T21:50:40.453Z,60.86
2023-03-27T21:53:08.387Z,61.17
2023-03-27T21:55:37.439Z,61.34
2023-03-27T21:58:05.722Z,60.95
2023-03-27T22:00:35.447Z,60.99
2023-03-27T22:03:03.460Z,61.45
2023-03-27T22:05:31.398Z,64.00
2023-03-27T22:07:59.347Z,65.88
2023-03-27T22:10:27.324Z,66.41
2023-03-27T22:12:55.268Z,67.20
2023-03-27T22:15:23.156Z,67.49
2023-03-27T22:17:52.615Z,68.16
2023-03-27T22:20:21.048Z,68.20
2023-03-27T22:22:49.549Z,68.51
2023-03-27T22:25:17.647Z,68.54
2023-03-27T22:27:46.451Z,68.56
2023-03-27T22:30:15.798Z,68.34
2023-03-27T22:32:44.471Z,68.45
2023-03-27T22:35:13.778Z,68.59
2023-03-27T22:37:41.960Z,68.45
2023-03-27T22:40:10.558Z,68.43
2023-03-27T22:42:38.482Z,68.04
2023-03-27T22:45:07.453Z,67.68
2023-03-27T22:47:35.876Z,67.78
2023-03-27T22:50:06.449Z,67.45
2023-03-27T22:52:35.767Z,67.24
2023-03-27T22:55:03.721Z,67.16
2023-03-27T22:57:31.654Z,66.54
2023-03-27T22:59:59.552Z,64.84
2023-03-27T23:02:27.651Z,64.60
2023-03-27T23:04:55.614Z,64.65
2023-03-27T23:07:23.530Z,64.44
2023-03-27T23:09:53.007Z,65.42
2023-03-27T23:12:20.924Z,65.01
2023-03-27T23:14:48.866Z,65.94
2023-03-27T23:17:16.846Z,66.57
2023-03-27T23:19:44.765Z,66.02
2023-03-27T23:22:12.693Z,65.80
2023-03-27T23:24:40.571Z,65.74
2023-03-27T23:27:09.878Z,65.85
2023-03-27T23:29:37.797Z,66.24
2023-03-27T23:32:06.280Z,65.98
2023-03-27T23:34:34.290Z,65.64
2023-03-27T23:37:02.196Z,66.08
2023-03-27T23:39:30.128Z,66.85
2023-03-27T23:41:58.007Z,67.12
2023-03-27T23:44:27.345Z,66.96
2023-03-27T23:46:55.302Z,66.99
2023-03-27T23:49:23.226Z,66.60
2023-03-27T23:51:51.138Z,67.49
2023-03-27T23:54:19.068Z,67.77
2023-03-27T23:56:47.018Z,67.01
2023-03-27T23:59:15.035Z,67.18
